Time;durP1;ratioP1;P1;durP2;ratioP2;P2;SDS_P1;SDS_P2;PMS_P1;PMS_P2;Temp;Humidity;BMP_temperature;BMP_pressure;BME280_temperature;BME280_humidity;BME280_pressure;Samples;Min_cycle;Max_cycle;Signal;HPM_P1;HPM_P2
2023/12/31 00:02:19;;;;;;;7.43;3.37;;;;;;;;;;5033366;28;20532;-80
2023/12/31 00:04:46;;;;;;;4.50;3.17;;;;;;;;;;5032501;28;20901;-80
2023/12/31 00:07:13;;;;;;;8.50;2.73;;;;;;;;;;5033372;28;20531;-78
2023/12/31 00:09:39;;;;;;;5.33;3.20;;;;;;;;;;5032814;28;20552;-78
2023/12/31 00:12:06;;;;;;;6.93;2.77;;;;;;;;;;5033220;28;20567;-80
2023/12/31 00:14:33;;;;;;;7.90;2.80;;;;;;;;;;5032648;28;20502;-80
2023/12/31 00:17:00;;;;;;;5.97;3.00;;;;;;;;;;5033227;28;20890;-80
2023/12/31 00:19:27;;;;;;;3.10;2.40;;;;;;;;;;5032686;28;20560;-80
2023/12/31 00:21:55;;;;;;;6.47;3.17;;;;;;;;;;5032958;28;21006;-80
2023/12/31 00:24:21;;;;;;;7.23;2.43;;;;;;;;;;5032565;28;20911;-80
2023/12/31 00:26:48;;;;;;;3.80;2.83;;;;;;;;;;5033204;28;20440;-80
2023/12/31 00:29:14;;;;;;;9.50;3.37;;;;;;;;;;5032562;28;20538;-80
2023/12/31 00:31:41;;;;;;;10.33;3.33;;;;;;;;;;5032745;28;20539;-80
2023/12/31 00:34:08;;;;;;;5.00;2.87;;;;;;;;;;5032508;28;20652;-80
2023/12/31 00:36:35;;;;;;;5.90;2.37;;;;;;;;;;5033141;28;20450;-78
2023/12/31 00:39:02;;;;;;;3.93;2.80;;;;;;;;;;5032592;28;20461;-78
2023/12/31 00:41:29;;;;;;;6.13;2.90;;;;;;;;;;5032993;28;20528;-79
2023/12/31 00:43:55;;;;;;;5.40;2.70;;;;;;;;;;5032164;28;20527;-81
2023/12/31 00:46:22;;;;;;;3.10;2.70;;;;;;;;;;5032905;28;20531;-78
2023/12/31 00:48:48;;;;;;;4.20;3.20;;;;;;;;;;5032425;28;20516;-78
2023/12/31 00:51:15;;;;;;;4.67;2.53;;;;;;;;;;5032987;28;20452;-78
2023/12/31 00:53:41;;;;;;;5.40;3.13;;;;;;;;;;5032363;28;20480;-79
2023/12/31 00:56:10;;;;;;;4.23;3.17;;;;;;;;;;5032428;28;20457;-78
2023/12/31 00:58:36;;;;;;;5.30;3.57;;;;;;;;;;5032355;28;20902;-78
2023/12/31 01:01:03;;;;;;;6.00;3.20;;;;;;;;;;5032193;28;20898;-80
2023/12/31 01:03:29;;;;;;;5.30;3.67;;;;;;;;;;5032537;28;20531;-80
2023/12/31 01:05:56;;;;;;;6.83;3.33;;;;;;;;;;5032060;28;20568;-80
2023/12/31 01:08:23;;;;;;;7.80;2.83;;;;;;;;;;5035221;28;20531;-80
2023/12/31 01:10:49;;;;;;;5.17;2.87;;;;;;;;;;5036153;28;21038;-81
2023/12/31 01:13:17;;;;;;;6.77;2.70;;;;;;;;;;5035965;28;20844;-80
2023/12/31 01:15:43;;;;;;;8.00;5.13;;;;;;;;;;5035505;28;20559;-81
2023/12/31 01:18:10;;;;;;;8.87;3.10;;;;;;;;;;5035980;28;20535;-80
2023/12/31 01:20:36;;;;;;;4.10;2.90;;;;;;;;;;5035635;28;21037;-78
2023/12/31 01:23:03;;;;;;;4.33;2.37;;;;;;;;;;5036171;28;20532;-79
2023/12/31 01:25:29;;;;;;;4.83;3.40;;;;;;;;;;5035334;28;20556;-79
2023/12/31 01:27:55;;;;;;;5.43;2.50;;;;;;;;;;5036099;28;20547;-79
2023/12/31 01:30:23;;;;;;;6.73;3.00;;;;;;;;;;5035280;28;20913;-79
2023/12/31 01:32:50;;;;;;;9.70;3.70;;;;;;;;;;5035602;28;20990;-79
2023/12/31 01:35:16;;;;;;;5.77;3.07;;;;;;;;;;5035268;28;20978;-79
2023/12/31 01:37:43;;;;;;;11.53;2.83;;;;;;;;;;5035918;28;20537;-79
2023/12/31 01:40:09;;;;;;;4.03;2.80;;;;;;;;;;5035310;28;20492;-79
2023/12/31 01:42:36;;;;;;;8.93;2.80;;;;;;;;;;5035488;28;20527;-78
2023/12/31 01:45:03;;;;;;;5.53;3.87;;;;;;;;;;5035131;28;20555;-78
2023/12/31 01:47:31;;;;;;;3.40;2.63;;;;;;;;;;5035423;28;20449;-79
2023/12/31 01:49:57;;;;;;;9.97;3.73;;;;;;;;;;5035043;28;20571;-79
2023/12/31 01:52:24;;;;;;;4.90;3.13;;;;;;;;;;5035332;28;20571;-80
2023/12/31 01:54:51;;;;;;;6.10;2.70;;;;;;;;;;5034783;28;20991;-80
2023/12/31 01:57:17;;;;;;;6.50;2.77;;;;;;;;;;5035601;28;20873;-80
2023/12/31 01:59:44;;;;;;;6.23;3.13;;;;;;;;;;5034686;28;20555;-80
2023/12/31 02:02:10;;;;;;;4.63;2.87;;;;;;;;;;5035470;28;20921;-80
2023/12/31 02:04:39;;;;;;;4.90;2.40;;;;;;;;;;5034840;28;20882;-80
2023/12/31 02:07:05;;;;;;;5.07;3.30;;;;;;;;;;5035419;28;20892;-80
2023/12/31 02:09:31;;;;;;;4.40;2.87;;;;;;;;;;5034632;28;20551;-78
2023/12/31 02:11:58;;;;;;;11.37;3.03;;;;;;;;;;5035257;28;20543;-80
2023/12/31 02:14:25;;;;;;;9.20;2.77;;;;;;;;;;5034369;28;21069;-80
2023/12/31 02:16:51;;;;;;;4.33;2.60;;;;;;;;;;5035191;28;20527;-80
2023/12/31 02:19:17;;;;;;;5.90;2.60;;;;;;;;;;5034025;28;20555;-80
2023/12/31 02:21:45;;;;;;;4.47;1.93;;;;;;;;;;5035109;28;20527;-79
2023/12/31 02:24:14;;;;;;;6.77;2.43;;;;;;;;;;5034372;28;21062;-78
2023/12/31 02:26:42;;;;;;;7.30;2.70;;;;;;;;;;5034974;28;20533;-78
2023/12/31 02:29:08;;;;;;;3.30;2.77;;;;;;;;;;5034514;28;20544;-78
2023/12/31 02:31:35;;;;;;;3.30;2.50;;;;;;;;;;5034991;28;20524;-78
2023/12/31 02:34:01;;;;;;;5.30;2.40;;;;;;;;;;5034042;28;20544;-78
2023/12/31 02:36:27;;;;;;;2.30;2.10;;;;;;;;;;5034872;28;20540;-81
2023/12/31 02:38:54;;;;;;;2.57;2.37;;;;;;;;;;5034006;28;20986;-78
2023/12/31 02:41:20;;;;;;;5.00;2.50;;;;;;;;;;5034732;28;20524;-78
2023/12/31 02:43:48;;;;;;;3.83;2.20;;;;;;;;;;5033788;28;20876;-78
2023/12/31 02:46:15;;;;;;;2.87;1.93;;;;;;;;;;5034695;28;20517;-79
2023/12/31 02:48:41;;;;;;;4.67;2.13;;;;;;;;;;5034585;28;20448;-78
2023/12/31 02:51:08;;;;;;;6.80;2.60;;;;;;;;;;5034219;28;20548;-78
2023/12/31 02:53:34;;;;;;;6.27;2.60;;;;;;;;;;5034112;28;20572;-78
2023/12/31 02:56:01;;;;;;;3.40;2.00;;;;;;;;;;5034189;28;20915;-78
2023/12/31 02:58:28;;;;;;;2.60;2.10;;;;;;;;;;5033999;28;20453;-78
2023/12/31 03:00:56;;;;;;;7.70;2.50;;;;;;;;;;5034156;28;20904;-78
2023/12/31 03:03:22;;;;;;;5.10;2.50;;;;;;;;;;5037849;28;20461;-78
2023/12/31 03:05:48;;;;;;;5.90;2.20;;;;;;;;;;5033408;28;20552;-78
2023/12/31 03:08:15;;;;;;;2.27;2.07;;;;;;;;;;5033895;28;20990;-81
2023/12/31 03:10:42;;;;;;;4.90;2.33;;;;;;;;;;5033468;28;20464;-78
2023/12/31 03:13:08;;;;;;;3.53;2.10;;;;;;;;;;5034008;28;20567;-81
2023/12/31 03:15:35;;;;;;;3.60;2.03;;;;;;;;;;5033418;28;20556;-81
2023/12/31 03:18:04;;;;;;;4.40;2.53;;;;;;;;;;5034095;28;20528;-80
2023/12/31 03:20:30;;;;;;;6.40;2.30;;;;;;;;;;5033635;28;20898;-78
2023/12/31 03:22:57;;;;;;;2.70;1.90;;;;;;;;;;5033942;28;20441;-79
2023/12/31 03:25:23;;;;;;;2.70;1.70;;;;;;;;;;5033182;28;20477;-81
2023/12/31 03:27:50;;;;;;;5.27;1.90;;;;;;;;;;5033879;28;20532;-80
2023/12/31 03:30:16;;;;;;;2.70;1.97;;;;;;;;;;5032429;28;20915;-80
2023/12/31 03:32:42;;;;;;;1.77;1.60;;;;;;;;;;5033745;28;20440;-78
2023/12/31 03:35:10;;;;;;;2.13;1.90;;;;;;;;;;5032999;28;20561;-78
2023/12/31 03:37:37;;;;;;;3.00;2.07;;;;;;;;;;5033454;28;20543;-78
2023/12/31 03:40:04;;;;;;;3.97;2.63;;;;;;;;;;5033090;28;20891;-78
2023/12/31 03:42:31;;;;;;;2.37;2.17;;;;;;;;;;5033355;28;21002;-78
2023/12/31 03:44:57;;;;;;;5.50;2.83;;;;;;;;;;5033242;28;20988;-80
2023/12/31 03:47:24;;;;;;;4.13;2.53;;;;;;;;;;5033237;28;20935;-78
2023/12/31 03:49:50;;;;;;;5.07;2.37;;;;;;;;;;5033154;28;20468;-79
2023/12/31 03:52:18;;;;;;;3.73;2.00;;;;;;;;;;5033439;28;20532;-78
2023/12/31 03:54:44;;;;;;;4.90;1.93;;;;;;;;;;5032755;28;20551;-79
2023/12/31 03:57:11;;;;;;;3.70;1.73;;;;;;;;;;5033518;28;20523;-79
2023/12/31 03:59:37;;;;;;;3.50;2.47;;;;;;;;;;5032687;28;20475;-79
2023/12/31 04:02:04;;;;;;;3.80;2.40;;;;;;;;;;5033114;28;20529;-79
2023/12/31 04:04:30;;;;;;;8.67;2.07;;;;;;;;;;5032450;28;21058;-79
2023/12/31 04:06:57;;;;;;;5.43;2.40;;;;;;;;;;5033373;28;20523;-79
2023/12/31 04:09:24;;;;;;;2.93;2.60;;;;;;;;;;5032758;28;20543;-79
2023/12/31 04:11:51;;;;;;;5.60;2.33;;;;;;;;;;5033349;28;20864;-79
2023/12/31 04:14:17;;;;;;;3.10;2.10;;;;;;;;;;5032401;28;20563;-79
2023/12/31 04:16:44;;;;;;;3.23;2.20;;;;;;;;;;5033010;28;20986;-79
2023/12/31 04:19:14;;;;;;;6.03;2.77;;;;;;;;;;5032546;28;21059;-79
2023/12/31 04:21:40;;;;;;;6.37;2.63;;;;;;;;;;5033097;28;20532;-79
2023/12/31 04:24:06;;;;;;;6.80;3.20;;;;;;;;;;5032697;28;20564;-78
2023/12/31 04:26:34;;;;;;;9.67;3.47;;;;;;;;;;5032807;28;21009;-79
2023/12/31 04:29:01;;;;;;;12.50;3.57;;;;;;;;;;5032689;28;20523;-79
2023/12/31 04:31:27;;;;;;;8.40;4.77;;;;;;;;;;5032882;28;20519;-79
2023/12/31 04:33:54;;;;;;;7.13;3.37;;;;;;;;;;5032483;28;20530;-79
2023/12/31 04:36:20;;;;;;;7.13;3.53;;;;;;;;;;5032720;28;21018;-78
2023/12/31 04:38:46;;;;;;;8.77;3.30;;;;;;;;;;5032207;28;20527;-79
2023/12/31 04:41:19;;;;;;;6.93;2.87;;;;;;;;;;5034050;28;20535;-79
2023/12/31 04:43:47;;;;;;;5.57;3.20;;;;;;;;;;5036190;28;20504;-78
2023/12/31 04:46:14;;;;;;;4.17;3.13;;;;;;;;;;5036912;28;20515;-79
2023/12/31 04:48:41;;;;;;;10.50;3.10;;;;;;;;;;5036796;28;20536;-79
2023/12/31 04:51:07;;;;;;;6.33;3.30;;;;;;;;;;5036521;28;20453;-79
2023/12/31 04:53:34;;;;;;;9.43;4.53;;;;;;;;;;5036368;28;20939;-79
2023/12/31 04:56:00;;;;;;;9.70;5.73;;;;;;;;;;5035863;28;20575;-79
2023/12/31 04:58:26;;;;;;;9.13;5.30;;;;;;;;;;5036516;28;20547;-79
2023/12/31 05:00:54;;;;;;;16.53;8.20;;;;;;;;;;5035877;28;20897;-79
2023/12/31 05:03:20;;;;;;;15.90;9.03;;;;;;;;;;5036257;28;21002;-79
2023/12/31 05:05:47;;;;;;;13.30;8.50;;;;;;;;;;5035764;28;20878;-78
2023/12/31 05:08:13;;;;;;;10.60;6.70;;;;;;;;;;5036420;28;20475;-79
2023/12/31 05:10:40;;;;;;;7.47;5.50;;;;;;;;;;5035769;28;20476;-78
2023/12/31 05:13:07;;;;;;;7.40;4.60;;;;;;;;;;5036376;28;20440;-79
2023/12/31 05:15:34;;;;;;;8.43;4.10;;;;;;;;;;5035870;28;20556;-79
2023/12/31 05:18:02;;;;;;;8.30;4.63;;;;;;;;;;5036260;28;20868;-79
2023/12/31 05:20:29;;;;;;;6.30;4.23;;;;;;;;;;5035932;28;20456;-78
2023/12/31 05:22:55;;;;;;;5.80;3.43;;;;;;;;;;5035941;28;21031;-79
2023/12/31 05:25:22;;;;;;;5.80;4.00;;;;;;;;;;5035679;28;21053;-79
2023/12/31 05:27:48;;;;;;;7.90;4.40;;;;;;;;;;5036206;28;20527;-79
2023/12/31 05:30:15;;;;;;;4.53;3.20;;;;;;;;;;5035477;28;20551;-79
2023/12/31 05:32:41;;;;;;;5.63;2.93;;;;;;;;;;5035723;28;20532;-78
2023/12/31 05:35:10;;;;;;;5.33;3.13;;;;;;;;;;5035271;28;20548;-79
2023/12/31 05:37:36;;;;;;;7.73;3.60;;;;;;;;;;5035667;28;20536;-79
2023/12/31 05:40:04;;;;;;;3.53;3.20;;;;;;;;;;5035142;28;20907;-79
2023/12/31 05:42:31;;;;;;;6.63;3.80;;;;;;;;;;5035949;28;20547;-79
2023/12/31 05:44:58;;;;;;;7.63;3.47;;;;;;;;;;5035244;28;20522;-79
2023/12/31 05:47:24;;;;;;;4.23;3.77;;;;;;;;;;5035283;28;20528;-79
2023/12/31 05:49:51;;;;;;;4.50;3.30;;;;;;;;;;5034945;28;20556;-79
2023/12/31 05:52:18;;;;;;;8.40;3.67;;;;;;;;;;5034941;28;21038;-79
2023/12/31 05:54:45;;;;;;;6.07;3.70;;;;;;;;;;5034542;28;20844;-78
2023/12/31 05:57:11;;;;;;;6.70;3.60;;;;;;;;;;5035643;28;20544;-78
2023/12/31 05:59:38;;;;;;;6.13;3.40;;;;;;;;;;5034783;28;20915;-78
2023/12/31 06:02:04;;;;;;;12.97;4.63;;;;;;;;;;5035485;28;20519;-78
2023/12/31 06:04:31;;;;;;;6.50;3.97;;;;;;;;;;5034785;28;20559;-78
2023/12/31 06:06:57;;;;;;;8.10;3.90;;;;;;;;;;5035458;28;20436;-78
2023/12/31 06:09:26;;;;;;;5.60;3.93;;;;;;;;;;5034692;28;20994;-78
2023/12/31 06:11:53;;;;;;;8.57;3.33;;;;;;;;;;5035095;28;20448;-78
2023/12/31 06:14:19;;;;;;;4.87;3.40;;;;;;;;;;5034429;28;20551;-78
2023/12/31 06:16:45;;;;;;;2.60;2.37;;;;;;;;;;5034944;28;20539;-78
2023/12/31 06:19:12;;;;;;;5.60;3.60;;;;;;;;;;5034806;28;20882;-79
2023/12/31 06:21:38;;;;;;;3.90;2.63;;;;;;;;;;5035220;28;20524;-79
2023/12/31 06:24:05;;;;;;;5.77;2.67;;;;;;;;;;5034511;28;20544;-79
2023/12/31 06:26:33;;;;;;;4.93;2.80;;;;;;;;;;5035135;28;20531;-79
2023/12/31 06:28:59;;;;;;;2.70;2.20;;;;;;;;;;5034219;28;20528;-79
2023/12/31 06:31:26;;;;;;;6.00;4.27;;;;;;;;;;5034933;28;20471;-79
2023/12/31 06:33:52;;;;;;;5.73;3.87;;;;;;;;;;5034324;28;20992;-79
2023/12/31 06:36:19;;;;;;;3.03;2.60;;;;;;;;;;5034517;28;20440;-79
2023/12/31 06:38:45;;;;;;;8.03;2.60;;;;;;;;;;5034300;28;20499;-79
2023/12/31 06:41:12;;;;;;;3.00;2.27;;;;;;;;;;5034536;28;20536;-79
2023/12/31 06:43:40;;;;;;;5.60;2.90;;;;;;;;;;5034687;28;20472;-79
2023/12/31 06:46:06;;;;;;;5.43;2.90;;;;;;;;;;5034268;28;20495;-79
2023/12/31 06:48:33;;;;;;;4.63;2.77;;;;;;;;;;5034275;28;21014;-79
2023/12/31 06:50:59;;;;;;;4.90;3.47;;;;;;;;;;5034379;28;20555;-78
2023/12/31 06:53:26;;;;;;;5.20;2.90;;;;;;;;;;5034474;28;20528;-79
2023/12/31 06:55:52;;;;;;;5.70;3.00;;;;;;;;;;5033719;28;20559;-78
2023/12/31 06:58:18;;;;;;;4.90;2.83;;;;;;;;;;5033910;28;20547;-79
2023/12/31 07:00:46;;;;;;;4.67;3.80;;;;;;;;;;5033638;28;20552;-79
2023/12/31 07:03:13;;;;;;;12.60;4.10;;;;;;;;;;5034014;28;20531;-79
2023/12/31 07:05:39;;;;;;;5.10;2.63;;;;;;;;;;5033481;28;21078;-79
2023/12/31 07:08:06;;;;;;;5.73;3.07;;;;;;;;;;5034222;28;20520;-79
2023/12/31 07:10:32;;;;;;;4.80;3.20;;;;;;;;;;5033942;28;21057;-79
2023/12/31 07:12:58;;;;;;;6.03;3.70;;;;;;;;;;5034134;28;20520;-79
2023/12/31 07:15:25;;;;;;;7.60;3.30;;;;;;;;;;5033135;28;20548;-79
2023/12/31 07:17:53;;;;;;;9.30;4.70;;;;;;;;;;5034108;28;20880;-79
2023/12/31 07:20:20;;;;;;;8.20;4.27;;;;;;;;;;5033295;28;20475;-79
2023/12/31 07:22:47;;;;;;;4.87;3.77;;;;;;;;;;5033734;28;21006;-79
2023/12/31 07:25:13;;;;;;;10.43;5.13;;;;;;;;;;5033368;28;20560;-79
2023/12/31 07:27:40;;;;;;;5.80;4.30;;;;;;;;;;5033906;28;20524;-79
2023/12/31 07:30:07;;;;;;;9.07;4.67;;;;;;;;;;5033209;28;20496;-79
2023/12/31 07:32:34;;;;;;;119.60;56.53;;;;;;;;;;5033508;28;20445;-78
2023/12/31 07:35:02;;;;;;;35.83;19.40;;;;;;;;;;5032964;28;20888;-79
2023/12/31 07:37:28;;;;;;;12.50;6.80;;;;;;;;;;5033414;28;21022;-79
2023/12/31 07:39:54;;;;;;;7.93;6.30;;;;;;;;;;5033416;28;20560;-79
2023/12/31 07:42:21;;;;;;;9.17;6.23;;;;;;;;;;5033431;28;20532;-79
2023/12/31 07:44:47;;;;;;;7.60;4.73;;;;;;;;;;5033221;28;20555;-79
2023/12/31 07:47:14;;;;;;;10.00;6.80;;;;;;;;;;5033352;28;20994;-78
2023/12/31 07:49:39;;;;;;;14.43;6.43;;;;;;;;;;5032740;28;21002;-79
2023/12/31 07:52:07;;;;;;;10.43;7.03;;;;;;;;;;5033521;28;20447;-79
2023/12/31 07:54:33;;;;;;;7.57;4.70;;;;;;;;;;5032903;28;20333;-79
2023/12/31 07:57:00;;;;;;;15.67;11.93;;;;;;;;;;5033224;28;20527;-79
2023/12/31 07:59:26;;;;;;;8.40;6.50;;;;;;;;;;5032706;28;20901;-79
2023/12/31 08:01:53;;;;;;;8.33;4.40;;;;;;;;;;5033110;28;21021;-79
2023/12/31 08:04:20;;;;;;;6.93;4.70;;;;;;;;;;5032715;28;20484;-80
2023/12/31 08:06:46;;;;;;;8.93;6.40;;;;;;;;;;5033091;28;20946;-80
2023/12/31 08:09:15;;;;;;;15.57;5.53;;;;;;;;;;5033268;28;21037;-80
2023/12/31 08:11:42;;;;;;;9.90;5.43;;;;;;;;;;5033797;28;21022;-81
2023/12/31 08:14:08;;;;;;;9.23;6.10;;;;;;;;;;5032691;28;20580;-78
2023/12/31 08:16:35;;;;;;;8.43;5.27;;;;;;;;;;5036452;28;20531;-80
2023/12/31 08:19:03;;;;;;;9.60;5.10;;;;;;;;;;5039452;28;21990;-80
2023/12/31 08:21:30;;;;;;;6.20;4.80;;;;;;;;;;5039898;28;20535;-80
2023/12/31 08:23:56;;;;;;;8.47;6.73;;;;;;;;;;5039295;28;20499;-78
2023/12/31 08:26:25;;;;;;;9.57;5.37;;;;;;;;;;5039491;28;20532;-81
2023/12/31 08:28:51;;;;;;;11.47;7.50;;;;;;;;;;5039048;28;20456;-78
2023/12/31 08:31:18;;;;;;;7.47;4.80;;;;;;;;;;5039726;28;20527;-78
2023/12/31 08:33:44;;;;;;;6.13;4.67;;;;;;;;;;5039274;28;20496;-79
2023/12/31 08:36:11;;;;;;;5.30;3.90;;;;;;;;;;5039626;28;20574;-79
2023/12/31 08:38:37;;;;;;;5.33;3.90;;;;;;;;;;5039459;28;20524;-79
2023/12/31 08:41:04;;;;;;;4.67;3.27;;;;;;;;;;5038937;28;20560;-79
2023/12/31 08:43:32;;;;;;;5.43;3.43;;;;;;;;;;5039284;28;20994;-79
2023/12/31 08:45:58;;;;;;;5.77;3.63;;;;;;;;;;5038782;28;20471;-79
2023/12/31 08:48:25;;;;;;;6.13;3.87;;;;;;;;;;5039487;28;20515;-78
2023/12/31 08:50:51;;;;;;;2.70;2.43;;;;;;;;;;5038776;28;21037;-79
2023/12/31 08:53:19;;;;;;;4.37;3.17;;;;;;;;;;5039591;28;20437;-79
2023/12/31 08:55:47;;;;;;;4.80;3.13;;;;;;;;;;5038678;28;20534;-79
2023/12/31 08:58:14;;;;;;;3.93;2.77;;;;;;;;;;5039365;28;20826;-79
2023/12/31 09:00:42;;;;;;;3.10;2.80;;;;;;;;;;5038753;28;21002;-79
2023/12/31 09:03:08;;;;;;;7.40;3.07;;;;;;;;;;5039409;28;20447;-79
2023/12/31 09:05:35;;;;;;;3.50;3.20;;;;;;;;;;5038737;28;20555;-79
2023/12/31 09:08:02;;;;;;;4.83;2.93;;;;;;;;;;5039097;28;21026;-79
2023/12/31 09:10:28;;;;;;;4.00;2.60;;;;;;;;;;5038649;28;20476;-79
2023/12/31 09:12:56;;;;;;;3.77;3.00;;;;;;;;;;5039353;28;20499;-79
2023/12/31 09:15:22;;;;;;;7.57;5.70;;;;;;;;;;5038492;28;20603;-79
2023/12/31 09:17:50;;;;;;;4.43;3.20;;;;;;;;;;5039012;28;20440;-79
2023/12/31 09:20:17;;;;;;;10.23;8.30;;;;;;;;;;5039744;28;21082;-81
2023/12/31 09:22:43;;;;;;;11.20;7.97;;;;;;;;;;5039310;28;20437;-80
2023/12/31 09:25:10;;;;;;;56.27;36.80;;;;;;;;;;5038378;28;20555;-78
2023/12/31 09:27:36;;;;;;;28.73;18.13;;;;;;;;;;5036863;28;20529;-78
2023/12/31 09:30:02;;;;;;;5.37;3.37;;;;;;;;;;5035359;28;20559;-78
2023/12/31 09:32:29;;;;;;;9.47;6.73;;;;;;;;;;5036129;28;20441;-80
2023/12/31 09:34:57;;;;;;;12.70;7.60;;;;;;;;;;5035339;28;20579;-80
2023/12/31 09:37:24;;;;;;;32.10;17.00;;;;;;;;;;5036019;28;20444;-80
2023/12/31 09:39:50;;;;;;;26.07;13.43;;;;;;;;;;5035358;28;20496;-80
2023/12/31 09:42:19;;;;;;;16.90;10.33;;;;;;;;;;5035582;28;20528;-80
2023/12/31 09:44:46;;;;;;;25.90;14.57;;;;;;;;;;5035207;28;20496;-80
2023/12/31 09:47:14;;;;;;;37.40;19.67;;;;;;;;;;5035510;28;20993;-80
2023/12/31 09:49:40;;;;;;;24.47;13.70;;;;;;;;;;5035173;28;20994;-80
2023/12/31 09:52:08;;;;;;;14.70;10.97;;;;;;;;;;5035456;28;20879;-80
2023/12/31 09:54:37;;;;;;;10.80;7.17;;;;;;;;;;5034870;28;21050;-80
2023/12/31 09:57:05;;;;;;;11.30;7.17;;;;;;;;;;5035609;28;20447;-80
2023/12/31 09:59:31;;;;;;;10.07;4.00;;;;;;;;;;5035469;28;20552;-79
2023/12/31 10:01:59;;;;;;;6.33;5.00;;;;;;;;;;5039669;28;20468;-78
2023/12/31 10:04:27;;;;;;;33.70;19.37;;;;;;;;;;5034741;28;20556;-78
2023/12/31 10:06:54;;;;;;;43.53;27.70;;;;;;;;;;5035413;28;20523;-78
2023/12/31 10:09:24;;;;;;;31.47;18.40;;;;;;;;;;5034582;28;20559;-81
2023/12/31 10:11:51;;;;;;;6.60;5.83;;;;;;;;;;5035369;28;20861;-80
2023/12/31 10:14:17;;;;;;;12.67;8.10;;;;;;;;;;5035165;28;20563;-80
2023/12/31 10:16:44;;;;;;;4.30;3.53;;;;;;;;;;5034914;28;20579;-80
2023/12/31 10:19:11;;;;;;;7.70;4.30;;;;;;;;;;5034523;28;20466;-80
2023/12/31 10:21:37;;;;;;;4.60;3.90;;;;;;;;;;5035248;28;20437;-80
2023/12/31 10:24:04;;;;;;;4.30;3.20;;;;;;;;;;5034302;28;20543;-80
2023/12/31 10:26:32;;;;;;;5.37;3.30;;;;;;;;;;5035053;28;20524;-80
2023/12/31 10:28:58;;;;;;;6.77;5.77;;;;;;;;;;5034585;28;20531;-80
2023/12/31 10:31:25;;;;;;;30.50;26.00;;;;;;;;;;5051229;28;20907;-80
2023/12/31 10:33:52;;;;;;;11.83;10.20;;;;;;;;;;5052674;28;20810;-80
2023/12/31 10:36:21;;;;;;;8.70;7.80;;;;;;;;;;5034599;28;20576;-80
2023/12/31 10:38:47;;;;;;;9.70;8.43;;;;;;;;;;5033993;28;20523;-80
2023/12/31 10:41:17;;;;;;;21.73;18.63;;;;;;;;;;5034765;28;20480;-80
2023/12/31 10:43:45;;;;;;;65.90;56.10;;;;;;;;;;5034273;28;20449;-80
2023/12/31 10:46:13;;;;;;;13.77;11.80;;;;;;;;;;5034761;28;20537;-80
2023/12/31 10:48:42;;;;;;;18.37;15.33;;;;;;;;;;5034316;28;20892;-80
2023/12/31 10:51:10;;;;;;;20.40;17.67;;;;;;;;;;5034343;28;20536;-80
2023/12/31 10:53:38;;;;;;;6.30;4.93;;;;;;;;;;5034511;28;20499;-80
2023/12/31 10:56:05;;;;;;;3.87;3.47;;;;;;;;;;5033579;28;21069;-80
2023/12/31 10:58:32;;;;;;;18.23;12.83;;;;;;;;;;5034003;28;20456;-80
2023/12/31 11:01:02;;;;;;;12.87;11.63;;;;;;;;;;5033703;28;20555;-79
2023/12/31 11:03:30;;;;;;;9.53;8.40;;;;;;;;;;5034493;28;20449;-80
2023/12/31 11:05:58;;;;;;;4.37;3.33;;;;;;;;;;5033494;28;20560;-80
2023/12/31 11:08:25;;;;;;;12.97;10.23;;;;;;;;;;5033969;28;20532;-80
2023/12/31 11:10:51;;;;;;;5.43;4.37;;;;;;;;;;5033569;28;20563;-80
2023/12/31 11:13:18;;;;;;;3.20;1.90;;;;;;;;;;5034237;28;20523;-80
2023/12/31 11:15:46;;;;;;;8.50;7.70;;;;;;;;;;5033267;28;21093;-80
2023/12/31 11:18:19;;;;;;;8.50;7.70;;;;;;;;;;5034174;28;20871;-80
2023/12/31 11:20:55;;;;;;;3.77;2.47;;;;;;;;;;5033881;28;20475;-80
2023/12/31 11:23:29;;;;;;;4.37;3.30;;;;;;;;;;5034028;28;20475;-80
2023/12/31 11:25:57;;;;;;;6.47;5.70;;;;;;;;;;5033141;28;21060;-80
2023/12/31 11:28:26;;;;;;;20.80;18.83;;;;;;;;;;5033910;28;20445;-80
2023/12/31 11:30:53;;;;;;;9.37;8.57;;;;;;;;;;5033049;28;20557;-80
2023/12/31 11:33:22;;;;;;;10.87;9.00;;;;;;;;;;5033888;28;20494;-80
2023/12/31 11:35:49;;;;;;;5.90;3.60;;;;;;;;;;5032946;28;20564;-80
2023/12/31 11:38:16;;;;;;;5.80;3.77;;;;;;;;;;5033758;28;20436;-80
2023/12/31 11:40:43;;;;;;;4.87;3.77;;;;;;;;;;5033480;28;20555;-80
2023/12/31 11:43:10;;;;;;;3.10;2.53;;;;;;;;;;5033752;28;20860;-80
2023/12/31 11:45:40;;;;;;;4.10;3.53;;;;;;;;;;5032865;28;20560;-80
2023/12/31 11:48:16;;;;;;;9.43;6.83;;;;;;;;;;5033601;28;20441;-79
2023/12/31 11:50:44;;;;;;;6.10;3.70;;;;;;;;;;5032277;28;20477;-79
2023/12/31 11:53:12;;;;;;;5.13;4.60;;;;;;;;;;5033255;28;20891;-79
2023/12/31 11:55:38;;;;;;;2.87;2.60;;;;;;;;;;5032666;28;20567;-79
2023/12/31 11:58:07;;;;;;;3.00;2.47;;;;;;;;;;5033243;28;20449;-79
2023/12/31 12:00:33;;;;;;;4.20;3.13;;;;;;;;;;5032820;28;20564;-79
2023/12/31 12:03:02;;;;;;;2.77;2.57;;;;;;;;;;5033477;28;20520;-79
2023/12/31 12:05:29;;;;;;;3.93;3.53;;;;;;;;;;5032758;28;20857;-79
2023/12/31 12:07:56;;;;;;;4.30;2.37;;;;;;;;;;5033397;28;20523;-79
2023/12/31 12:10:23;;;;;;;10.80;9.80;;;;;;;;;;5033006;28;20496;-79
2023/12/31 12:12:53;;;;;;;5.87;5.33;;;;;;;;;;5033008;28;20527;-79
2023/12/31 12:15:20;;;;;;;3.23;2.93;;;;;;;;;;5032491;28;20484;-79
2023/12/31 12:17:46;;;;;;;4.33;3.47;;;;;;;;;;5033400;28;20520;-79
2023/12/31 12:20:13;;;;;;;6.53;5.70;;;;;;;;;;5032479;28;20560;-79
2023/12/31 12:22:40;;;;;;;3.80;3.50;;;;;;;;;;5032952;28;21009;-79
2023/12/31 12:25:08;;;;;;;3.23;2.93;;;;;;;;;;5032561;28;20884;-79
2023/12/31 12:27:35;;;;;;;5.70;3.77;;;;;;;;;;5032872;28;20519;-79
2023/12/31 12:30:01;;;;;;;2.93;2.73;;;;;;;;;;5032484;28;21257;-79
2023/12/31 12:32:28;;;;;;;3.23;2.93;;;;;;;;;;5032905;28;21002;-79
2023/12/31 12:34:58;;;;;;;3.90;2.53;;;;;;;;;;5032255;28;21017;-79
2023/12/31 12:37:25;;;;;;;3.67;3.37;;;;;;;;;;5033573;28;20811;-79
2023/12/31 12:39:55;;;;;;;3.50;3.20;;;;;;;;;;5032739;28;20560;-79
2023/12/31 12:42:25;;;;;;;4.57;4.17;;;;;;;;;;5032927;28;20524;-79
2023/12/31 12:44:51;;;;;;;4.27;3.13;;;;;;;;;;5032331;28;21019;-79
2023/12/31 12:47:20;;;;;;;6.13;3.90;;;;;;;;;;5033002;28;20531;-79
2023/12/31 12:49:46;;;;;;;5.20;3.13;;;;;;;;;;5032526;28;20496;-79
2023/12/31 12:52:13;;;;;;;4.07;3.57;;;;;;;;;;5032658;28;20531;-79
2023/12/31 12:54:39;;;;;;;5.20;4.50;;;;;;;;;;5032330;28;20472;-79
2023/12/31 12:57:06;;;;;;;12.80;11.80;;;;;;;;;;5032805;28;20488;-79
2023/12/31 12:59:34;;;;;;;8.47;7.87;;;;;;;;;;5032181;28;20469;-79
2023/12/31 13:02:02;;;;;;;7.60;6.63;;;;;;;;;;5033519;28;20535;-79
2023/12/31 13:04:28;;;;;;;6.93;6.33;;;;;;;;;;5035797;28;21033;-79
2023/12/31 13:06:58;;;;;;;5.80;5.23;;;;;;;;;;5036269;28;21031;-79
2023/12/31 13:09:24;;;;;;;6.13;5.53;;;;;;;;;;5035735;28;21009;-79
2023/12/31 13:11:50;;;;;;;3.40;2.83;;;;;;;;;;5036486;28;20600;-79
2023/12/31 13:14:17;;;;;;;3.60;3.00;;;;;;;;;;5035872;28;20529;-79
2023/12/31 13:16:45;;;;;;;4.23;3.60;;;;;;;;;;5036366;28;20595;-79
2023/12/31 13:19:11;;;;;;;6.23;4.40;;;;;;;;;;5035845;28;20543;-79
2023/12/31 13:21:37;;;;;;;5.33;3.80;;;;;;;;;;5035957;28;20980;-79
2023/12/31 13:24:04;;;;;;;7.20;6.50;;;;;;;;;;5035493;28;20539;-79
2023/12/31 13:26:30;;;;;;;5.70;3.50;;;;;;;;;;5035946;28;20529;-79
2023/12/31 13:28:58;;;;;;;3.80;3.43;;;;;;;;;;5035794;28;20436;-79
2023/12/31 13:31:25;;;;;;;7.83;3.50;;;;;;;;;;5036128;28;20445;-79
2023/12/31 13:33:53;;;;;;;6.13;4.43;;;;;;;;;;5035461;28;20527;-79
2023/12/31 13:36:19;;;;;;;4.43;4.03;;;;;;;;;;5036449;28;20527;-79
2023/12/31 13:38:45;;;;;;;5.20;4.70;;;;;;;;;;5035566;28;20436;-79
2023/12/31 13:41:12;;;;;;;6.00;5.50;;;;;;;;;;5035940;28;20441;-79
2023/12/31 13:43:39;;;;;;;4.50;4.10;;;;;;;;;;5035730;28;20537;-79
2023/12/31 13:46:05;;;;;;;5.20;3.80;;;;;;;;;;5035082;28;20556;-79
2023/12/31 13:48:31;;;;;;;3.87;3.57;;;;;;;;;;5035468;28;20904;-79
2023/12/31 13:50:59;;;;;;;5.10;4.33;;;;;;;;;;5035029;28;20551;-79
2023/12/31 13:53:26;;;;;;;5.67;5.17;;;;;;;;;;5035457;28;21029;-79
2023/12/31 13:55:53;;;;;;;6.13;4.37;;;;;;;;;;5034808;28;20556;-79
2023/12/31 13:58:19;;;;;;;5.10;3.80;;;;;;;;;;5035238;28;20970;-79
2023/12/31 14:00:49;;;;;;;6.57;3.67;;;;;;;;;;5034943;28;20911;-79
2023/12/31 14:03:16;;;;;;;6.23;4.53;;;;;;;;;;5035199;28;20437;-79
2023/12/31 14:05:42;;;;;;;5.20;4.43;;;;;;;;;;5034763;28;20571;-79
2023/12/31 14:08:10;;;;;;;4.03;3.40;;;;;;;;;;5035174;28;20892;-79
2023/12/31 14:10:36;;;;;;;4.73;2.80;;;;;;;;;;5034818;28;20556;-79
2023/12/31 14:13:03;;;;;;;4.03;2.97;;;;;;;;;;5035232;28;20528;-79
2023/12/31 14:15:31;;;;;;;5.30;3.40;;;;;;;;;;5033822;28;20556;-79
2023/12/31 14:17:58;;;;;;;5.03;3.20;;;;;;;;;;5035232;28;20480;-79
2023/12/31 14:20:24;;;;;;;3.67;3.30;;;;;;;;;;5034964;28;20900;-79
2023/12/31 14:22:51;;;;;;;3.40;2.97;;;;;;;;;;5035257;28;20528;-79
2023/12/31 14:25:18;;;;;;;4.17;3.77;;;;;;;;;;5034460;28;20472;-79
2023/12/31 14:27:45;;;;;;;5.03;3.37;;;;;;;;;;5035137;28;20532;-79
2023/12/31 14:30:12;;;;;;;5.00;3.90;;;;;;;;;;5034750;28;20560;-79
2023/12/31 14:32:39;;;;;;;4.33;3.90;;;;;;;;;;5035005;28;20532;-79
2023/12/31 14:35:06;;;;;;;2.80;2.60;;;;;;;;;;5033937;28;21057;-79
2023/12/31 14:37:32;;;;;;;3.10;2.80;;;;;;;;;;5034515;28;20571;-79
2023/12/31 14:39:59;;;;;;;5.17;2.87;;;;;;;;;;5034368;28;20575;-79